YBMK Airport Information

Runway Information
Runway 05 Length 4409 ft width 98 ft
Elevation 19 ft Threshold 187 ft Heading 58
Runway 23 Length 4409 ft Width 98 ft
Elevation 13 ft Threshold 0 ft Heading 238
Runway 14 Length 6499 ft width 148 ft
Elevation 17 ft Threshold 0 ft Heading 148
Runway 32 Length 6499 ft Width 148 ft
Elevation 14 ft Threshold 0 ft Heading 328
Airport Frequencies
Type ATIS Name ATIS Frequency 112.7 MHZ
Type CTAF Name CTAF Frequency 124.5 MHZ
Type FSS Name BRISBANE C Frequency 135.5 MHZ
Type TWR Name TWR Frequency 124.5 MHZ
Airport Navaids
Type VOR-DME Name Mackay Frequency 112700 KHZ
Type NDB Name Mackay Frequency 308 KHZ
Airport Weather Information & NOTAM
ADDS - METARS form results

(1021 UTC 23 March 2019)
Data provider http://aviationweather.gov/metar/data/
 
METAR text: YBMK 231000Z AUTO 09006KT 9999 // SCT019 BKN024 27/24 Q1013
Conditions at: YBMK (MACKAY , AU) observed 1000 UTC 23 March 2019
Temperature: 27.0°C (81°F)
Dewpoint: 24.0°C (75°F) [RH = 84%]
Pressure (altimeter): 29.91 inches Hg (1013.0 mb)
Winds: from the E (90 degrees) at 7 MPH (6 knots; 3.1 m/s)
Visibility: 6 or more miles (10+ km)
Ceiling: 2400 feet AGL
Clouds: scattered clouds at 1900 feet AGL
broken clouds at 2400 feet AGL
Weather: no significant weather observed at this time